sensor_id;sensor_type;location;lat;lon;timestamp;P1;durP1;ratioP1;P2;durP2;ratioP2
1879;SDS011;49285;49.002;8.390;2022-11-12T00:01:17;33.43;;;11.30;;
1879;SDS011;49285;49.002;8.390;2022-11-12T00:03:43;20.67;;;11.23;;
1879;SDS011;49285;49.002;8.390;2022-11-12T00:06:09;21.40;;;10.93;;
1879;SDS011;49285;49.002;8.390;2022-11-12T00:08:35;14.87;;;10.70;;
1879;SDS011;49285;49.002;8.390;2022-11-12T00:11:03;15.97;;;11.70;;
1879;SDS011;49285;49.002;8.390;2022-11-12T00:13:29;12.80;;;10.57;;
1879;SDS011;49285;49.002;8.390;2022-11-12T00:15:55;14.97;;;10.73;;
1879;SDS011;49285;49.002;8.390;2022-11-12T00:18:21;13.57;;;10.87;;
1879;SDS011;49285;49.002;8.390;2022-11-12T00:20:46;12.00;;;9.53;;
1879;SDS011;49285;49.002;8.390;2022-11-12T00:23:12;13.60;;;10.93;;
1879;SDS011;49285;49.002;8.390;2022-11-12T00:25:37;15.00;;;10.23;;
1879;SDS011;49285;49.002;8.390;2022-11-12T00:28:07;11.80;;;10.50;;
1879;SDS011;49285;49.002;8.390;2022-11-12T00:30:36;23.37;;;9.53;;
1879;SDS011;49285;49.002;8.390;2022-11-12T00:33:04;14.90;;;10.13;;
1879;SDS011;49285;49.002;8.390;2022-11-12T00:35:30;13.80;;;10.00;;
1879;SDS011;49285;49.002;8.390;2022-11-12T00:37:56;16.03;;;10.70;;
1879;SDS011;49285;49.002;8.390;2022-11-12T00:40:23;13.87;;;10.33;;
1879;SDS011;49285;49.002;8.390;2022-11-12T00:42:50;14.47;;;10.37;;
1879;SDS011;49285;49.002;8.390;2022-11-12T00:45:16;16.90;;;11.33;;
1879;SDS011;49285;49.002;8.390;2022-11-12T00:47:43;14.70;;;10.20;;
1879;SDS011;49285;49.002;8.390;2022-11-12T00:50:09;18.60;;;10.10;;
1879;SDS011;49285;49.002;8.390;2022-11-12T00:52:34;13.97;;;10.17;;
1879;SDS011;49285;49.002;8.390;2022-11-12T00:55:00;15.23;;;10.97;;
1879;SDS011;49285;49.002;8.390;2022-11-12T00:57:26;14.67;;;10.67;;
1879;SDS011;49285;49.002;8.390;2022-11-12T00:59:51;13.20;;;10.40;;
1879;SDS011;49285;49.002;8.390;2022-11-12T01:02:17;13.50;;;10.63;;
1879;SDS011;49285;49.002;8.390;2022-11-12T01:04:44;17.23;;;10.70;;
1879;SDS011;49285;49.002;8.390;2022-11-12T01:07:10;17.00;;;11.00;;
1879;SDS011;49285;49.002;8.390;2022-11-12T01:09:35;17.43;;;10.33;;
1879;SDS011;49285;49.002;8.390;2022-11-12T01:12:01;13.27;;;10.57;;
1879;SDS011;49285;49.002;8.390;2022-11-12T01:14:26;17.50;;;10.50;;
1879;SDS011;49285;49.002;8.390;2022-11-12T01:16:52;18.33;;;10.13;;
1879;SDS011;49285;49.002;8.390;2022-11-12T01:19:18;13.40;;;10.10;;
1879;SDS011;49285;49.002;8.390;2022-11-12T01:21:43;17.37;;;10.73;;
1879;SDS011;49285;49.002;8.390;2022-11-12T01:24:09;20.93;;;10.33;;
1879;SDS011;49285;49.002;8.390;2022-11-12T01:26:35;16.13;;;10.67;;
1879;SDS011;49285;49.002;8.390;2022-11-12T01:29:01;14.60;;;11.43;;
1879;SDS011;49285;49.002;8.390;2022-11-12T01:31:29;13.20;;;10.20;;
1879;SDS011;49285;49.002;8.390;2022-11-12T01:33:57;14.10;;;10.33;;
1879;SDS011;49285;49.002;8.390;2022-11-12T01:36:25;19.17;;;10.33;;
1879;SDS011;49285;49.002;8.390;2022-11-12T01:38:52;18.53;;;11.53;;
1879;SDS011;49285;49.002;8.390;2022-11-12T01:41:24;13.93;;;10.47;;
1879;SDS011;49285;49.002;8.390;2022-11-12T01:46:47;14.17;;;9.50;;
1879;SDS011;49285;49.002;8.390;2022-11-12T01:49:35;13.63;;;10.00;;
1879;SDS011;49285;49.002;8.390;2022-11-12T01:52:14;13.93;;;10.30;;
1879;SDS011;49285;49.002;8.390;2022-11-12T01:54:44;16.80;;;10.00;;
1879;SDS011;49285;49.002;8.390;2022-11-12T01:57:14;18.93;;;10.57;;
1879;SDS011;49285;49.002;8.390;2022-11-12T01:59:44;15.50;;;11.50;;
1879;SDS011;49285;49.002;8.390;2022-11-12T02:02:12;18.10;;;11.63;;
1879;SDS011;49285;49.002;8.390;2022-11-12T02:04:38;19.47;;;10.77;;
1879;SDS011;49285;49.002;8.390;2022-11-12T02:07:06;13.40;;;9.40;;
1879;SDS011;49285;49.002;8.390;2022-11-12T02:09:32;13.23;;;9.40;;
1879;SDS011;49285;49.002;8.390;2022-11-12T02:11:59;12.83;;;7.70;;
1879;SDS011;49285;49.002;8.390;2022-11-12T02:14:25;9.17;;;6.73;;
1879;SDS011;49285;49.002;8.390;2022-11-12T02:16:50;11.00;;;7.30;;
1879;SDS011;49285;49.002;8.390;2022-11-12T02:19:17;12.37;;;7.63;;
1879;SDS011;49285;49.002;8.390;2022-11-12T02:21:46;9.87;;;7.57;;
1879;SDS011;49285;49.002;8.390;2022-11-12T02:26:39;11.10;;;7.70;;
1879;SDS011;49285;49.002;8.390;2022-11-12T02:29:07;8.37;;;6.80;;
1879;SDS011;49285;49.002;8.390;2022-11-12T02:31:33;9.90;;;7.50;;
1879;SDS011;49285;49.002;8.390;2022-11-12T02:33:59;9.53;;;7.40;;
1879;SDS011;49285;49.002;8.390;2022-11-12T02:36:24;10.80;;;7.70;;
1879;SDS011;49285;49.002;8.390;2022-11-12T02:38:51;9.20;;;7.50;;
1879;SDS011;49285;49.002;8.390;2022-11-12T02:41:16;10.23;;;7.30;;
1879;SDS011;49285;49.002;8.390;2022-11-12T02:43:42;11.20;;;7.53;;
1879;SDS011;49285;49.002;8.390;2022-11-12T02:46:08;10.20;;;7.53;;
1879;SDS011;49285;49.002;8.390;2022-11-12T02:48:33;7.53;;;6.60;;
1879;SDS011;49285;49.002;8.390;2022-11-12T02:50:59;9.30;;;7.13;;
1879;SDS011;49285;49.002;8.390;2022-11-12T02:53:24;11.13;;;7.87;;
1879;SDS011;49285;49.002;8.390;2022-11-12T02:55:50;10.17;;;7.10;;
1879;SDS011;49285;49.002;8.390;2022-11-12T02:58:16;7.60;;;6.10;;
1879;SDS011;49285;49.002;8.390;2022-11-12T03:00:42;9.97;;;7.23;;
1879;SDS011;49285;49.002;8.390;2022-11-12T03:03:07;12.17;;;7.13;;
1879;SDS011;49285;49.002;8.390;2022-11-12T03:05:33;13.00;;;7.00;;
1879;SDS011;49285;49.002;8.390;2022-11-12T03:08:01;13.03;;;7.13;;
1879;SDS011;49285;49.002;8.390;2022-11-12T03:10:29;9.10;;;6.93;;
1879;SDS011;49285;49.002;8.390;2022-11-12T03:12:56;8.00;;;6.60;;
1879;SDS011;49285;49.002;8.390;2022-11-12T03:15:23;7.70;;;5.83;;
1879;SDS011;49285;49.002;8.390;2022-11-12T03:17:49;8.20;;;6.10;;
1879;SDS011;49285;49.002;8.390;2022-11-12T03:20:14;7.50;;;6.37;;
1879;SDS011;49285;49.002;8.390;2022-11-12T03:22:40;9.90;;;6.23;;
1879;SDS011;49285;49.002;8.390;2022-11-12T03:25:07;8.27;;;6.20;;
1879;SDS011;49285;49.002;8.390;2022-11-12T03:27:33;6.97;;;5.87;;
1879;SDS011;49285;49.002;8.390;2022-11-12T03:29:59;8.60;;;6.80;;
1879;SDS011;49285;49.002;8.390;2022-11-12T03:32:24;7.97;;;6.60;;
1879;SDS011;49285;49.002;8.390;2022-11-12T03:34:50;7.93;;;6.63;;
1879;SDS011;49285;49.002;8.390;2022-11-12T03:37:16;10.90;;;6.53;;
1879;SDS011;49285;49.002;8.390;2022-11-12T03:39:41;8.50;;;6.67;;
1879;SDS011;49285;49.002;8.390;2022-11-12T03:42:07;7.77;;;6.40;;
1879;SDS011;49285;49.002;8.390;2022-11-12T03:44:33;7.73;;;5.80;;
1879;SDS011;49285;49.002;8.390;2022-11-12T03:46:58;10.87;;;6.60;;
1879;SDS011;49285;49.002;8.390;2022-11-12T03:49:24;8.10;;;6.30;;
1879;SDS011;49285;49.002;8.390;2022-11-12T03:51:50;7.70;;;6.43;;
1879;SDS011;49285;49.002;8.390;2022-11-12T03:54:15;7.33;;;5.90;;
1879;SDS011;49285;49.002;8.390;2022-11-12T03:56:41;8.20;;;6.07;;
1879;SDS011;49285;49.002;8.390;2022-11-12T03:59:06;7.63;;;5.90;;
1879;SDS011;49285;49.002;8.390;2022-11-12T04:01:32;5.97;;;5.37;;
1879;SDS011;49285;49.002;8.390;2022-11-12T04:03:57;7.70;;;6.30;;
1879;SDS011;49285;49.002;8.390;2022-11-12T04:06:23;7.80;;;6.00;;
1879;SDS011;49285;49.002;8.390;2022-11-12T04:09:07;6.77;;;5.37;;
1879;SDS011;49285;49.002;8.390;2022-11-12T04:11:33;6.63;;;5.30;;
1879;SDS011;49285;49.002;8.390;2022-11-12T04:13:59;7.10;;;5.30;;
1879;SDS011;49285;49.002;8.390;2022-11-12T04:16:24;5.53;;;4.73;;
1879;SDS011;49285;49.002;8.390;2022-11-12T04:19:12;6.10;;;5.03;;
1879;SDS011;49285;49.002;8.390;2022-11-12T04:27:17;7.07;;;5.93;;
1879;SDS011;49285;49.002;8.390;2022-11-12T04:29:47;5.83;;;4.57;;
1879;SDS011;49285;49.002;8.390;2022-11-12T04:32:33;9.73;;;5.33;;
1879;SDS011;49285;49.002;8.390;2022-11-12T04:35:01;6.67;;;5.23;;
1879;SDS011;49285;49.002;8.390;2022-11-12T04:37:27;6.57;;;5.60;;
1879;SDS011;49285;49.002;8.390;2022-11-12T04:40:08;5.90;;;5.17;;
1879;SDS011;49285;49.002;8.390;2022-11-12T04:42:57;7.93;;;5.50;;
1879;SDS011;49285;49.002;8.390;2022-11-12T04:45:41;7.10;;;5.60;;
1879;SDS011;49285;49.002;8.390;2022-11-12T04:48:08;6.60;;;5.83;;
1879;SDS011;49285;49.002;8.390;2022-11-12T04:50:34;6.00;;;5.40;;
1879;SDS011;49285;49.002;8.390;2022-11-12T04:53:00;6.27;;;5.40;;
1879;SDS011;49285;49.002;8.390;2022-11-12T04:55:26;7.67;;;5.70;;
1879;SDS011;49285;49.002;8.390;2022-11-12T04:57:51;5.87;;;5.30;;
1879;SDS011;49285;49.002;8.390;2022-11-12T05:00:17;7.90;;;6.40;;
1879;SDS011;49285;49.002;8.390;2022-11-12T05:02:43;7.73;;;6.53;;
1879;SDS011;49285;49.002;8.390;2022-11-12T05:05:08;6.27;;;5.40;;
1879;SDS011;49285;49.002;8.390;2022-11-12T05:07:34;7.53;;;6.10;;
1879;SDS011;49285;49.002;8.390;2022-11-12T05:09:59;6.23;;;5.63;;
1879;SDS011;49285;49.002;8.390;2022-11-12T05:12:25;6.90;;;5.90;;
1879;SDS011;49285;49.002;8.390;2022-11-12T05:14:50;7.30;;;5.70;;
1879;SDS011;49285;49.002;8.390;2022-11-12T05:17:16;7.43;;;5.63;;
1879;SDS011;49285;49.002;8.390;2022-11-12T05:19:42;7.83;;;6.37;;
1879;SDS011;49285;49.002;8.390;2022-11-12T05:22:08;8.90;;;5.70;;
1879;SDS011;49285;49.002;8.390;2022-11-12T05:24:36;6.97;;;5.87;;
1879;SDS011;49285;49.002;8.390;2022-11-12T05:27:06;7.30;;;5.87;;
1879;SDS011;49285;49.002;8.390;2022-11-12T05:29:34;6.77;;;5.90;;
1879;SDS011;49285;49.002;8.390;2022-11-12T05:31:59;9.90;;;6.13;;
1879;SDS011;49285;49.002;8.390;2022-11-12T05:34:25;6.50;;;5.80;;
1879;SDS011;49285;49.002;8.390;2022-11-12T05:36:51;8.20;;;6.10;;
1879;SDS011;49285;49.002;8.390;2022-11-12T05:39:17;8.00;;;6.13;;
1879;SDS011;49285;49.002;8.390;2022-11-12T05:41:42;8.57;;;6.03;;
1879;SDS011;49285;49.002;8.390;2022-11-12T05:44:08;7.77;;;6.70;;
1879;SDS011;49285;49.002;8.390;2022-11-12T05:46:34;9.33;;;6.90;;
1879;SDS011;49285;49.002;8.390;2022-11-12T05:48:59;8.27;;;6.20;;
1879;SDS011;49285;49.002;8.390;2022-11-12T05:51:25;8.20;;;6.00;;
1879;SDS011;49285;49.002;8.390;2022-11-12T05:53:50;9.47;;;7.10;;
1879;SDS011;49285;49.002;8.390;2022-11-12T05:56:16;8.30;;;7.10;;
1879;SDS011;49285;49.002;8.390;2022-11-12T05:58:41;7.83;;;7.03;;
1879;SDS011;49285;49.002;8.390;2022-11-12T06:01:07;6.90;;;6.20;;
1879;SDS011;49285;49.002;8.390;2022-11-12T06:03:32;7.27;;;6.00;;
1879;SDS011;49285;49.002;8.390;2022-11-12T06:05:58;8.33;;;6.70;;
1879;SDS011;49285;49.002;8.390;2022-11-12T06:08:24;7.63;;;5.93;;
1879;SDS011;49285;49.002;8.390;2022-11-12T06:10:50;7.53;;;6.33;;
1879;SDS011;49285;49.002;8.390;2022-11-12T06:13:17;7.93;;;5.80;;
1879;SDS011;49285;49.002;8.390;2022-11-12T06:15:43;10.03;;;7.00;;
1879;SDS011;49285;49.002;8.390;2022-11-12T06:18:09;8.10;;;5.80;;
1879;SDS011;49285;49.002;8.390;2022-11-12T06:20:35;8.77;;;6.80;;
1879;SDS011;49285;49.002;8.390;2022-11-12T06:23:01;8.70;;;7.63;;
1879;SDS011;49285;49.002;8.390;2022-11-12T06:25:27;7.93;;;6.87;;
1879;SDS011;49285;49.002;8.390;2022-11-12T06:27:53;11.93;;;6.77;;
1879;SDS011;49285;49.002;8.390;2022-11-12T06:30:19;8.17;;;7.03;;
1879;SDS011;49285;49.002;8.390;2022-11-12T06:32:48;10.07;;;7.83;;
1879;SDS011;49285;49.002;8.390;2022-11-12T06:35:14;9.33;;;6.80;;
1879;SDS011;49285;49.002;8.390;2022-11-12T06:37:41;9.03;;;7.10;;
1879;SDS011;49285;49.002;8.390;2022-11-12T06:40:08;8.60;;;7.53;;
1879;SDS011;49285;49.002;8.390;2022-11-12T06:42:34;10.50;;;7.80;;
1879;SDS011;49285;49.002;8.390;2022-11-12T06:45:00;7.60;;;6.23;;
1879;SDS011;49285;49.002;8.390;2022-11-12T06:47:25;8.70;;;7.67;;
1879;SDS011;49285;49.002;8.390;2022-11-12T06:49:51;8.40;;;7.20;;
1879;SDS011;49285;49.002;8.390;2022-11-12T06:52:16;9.20;;;7.37;;
1879;SDS011;49285;49.002;8.390;2022-11-12T06:54:42;10.37;;;7.63;;
1879;SDS011;49285;49.002;8.390;2022-11-12T06:57:08;9.63;;;7.70;;
1879;SDS011;49285;49.002;8.390;2022-11-12T06:59:33;9.53;;;7.40;;
1879;SDS011;49285;49.002;8.390;2022-11-12T07:01:59;10.30;;;7.87;;
1879;SDS011;49285;49.002;8.390;2022-11-12T07:04:24;11.53;;;7.13;;
1879;SDS011;49285;49.002;8.390;2022-11-12T07:06:50;10.67;;;8.07;;
1879;SDS011;49285;49.002;8.390;2022-11-12T07:09:16;8.73;;;7.70;;
1879;SDS011;49285;49.002;8.390;2022-11-12T07:11:41;9.57;;;7.97;;
1879;SDS011;49285;49.002;8.390;2022-11-12T07:14:07;9.20;;;7.97;;
1879;SDS011;49285;49.002;8.390;2022-11-12T07:16:33;10.93;;;7.13;;
1879;SDS011;49285;49.002;8.390;2022-11-12T07:19:00;7.60;;;6.87;;
1879;SDS011;49285;49.002;8.390;2022-11-12T07:21:25;9.03;;;6.80;;
1879;SDS011;49285;49.002;8.390;2022-11-12T07:23:51;8.80;;;6.80;;
1879;SDS011;49285;49.002;8.390;2022-11-12T07:26:20;7.97;;;7.17;;
1879;SDS011;49285;49.002;8.390;2022-11-12T07:28:47;7.80;;;6.80;;
1879;SDS011;49285;49.002;8.390;2022-11-12T07:31:14;8.53;;;6.87;;
1879;SDS011;49285;49.002;8.390;2022-11-12T07:33:41;8.17;;;7.10;;
1879;SDS011;49285;49.002;8.390;2022-11-12T07:36:08;7.70;;;6.37;;
1879;SDS011;49285;49.002;8.390;2022-11-12T07:38:39;9.97;;;6.43;;
1879;SDS011;49285;49.002;8.390;2022-11-12T07:41:07;7.60;;;6.43;;
1879;SDS011;49285;49.002;8.390;2022-11-12T07:43:38;7.60;;;6.60;;
1879;SDS011;49285;49.002;8.390;2022-11-12T07:46:10;8.27;;;6.90;;
1879;SDS011;49285;49.002;8.390;2022-11-12T07:48:37;9.00;;;6.60;;
1879;SDS011;49285;49.002;8.390;2022-11-12T07:51:05;6.77;;;5.90;;
1879;SDS011;49285;49.002;8.390;2022-11-12T07:53:32;7.43;;;6.00;;
1879;SDS011;49285;49.002;8.390;2022-11-12T07:56:00;7.60;;;6.47;;
1879;SDS011;49285;49.002;8.390;2022-11-12T07:58:26;8.00;;;6.60;;
1879;SDS011;49285;49.002;8.390;2022-11-12T08:00:54;8.33;;;6.93;;
1879;SDS011;49285;49.002;8.390;2022-11-12T08:03:20;9.73;;;6.77;;
1879;SDS011;49285;49.002;8.390;2022-11-12T08:05:45;9.03;;;7.93;;
1879;SDS011;49285;49.002;8.390;2022-11-12T08:08:11;8.43;;;6.57;;
1879;SDS011;49285;49.002;8.390;2022-11-12T08:10:37;10.70;;;7.10;;
1879;SDS011;49285;49.002;8.390;2022-11-12T08:13:03;7.13;;;6.40;;
1879;SDS011;49285;49.002;8.390;2022-11-12T08:15:29;7.10;;;6.40;;
1879;SDS011;49285;49.002;8.390;2022-11-12T08:17:55;7.60;;;5.93;;
1879;SDS011;49285;49.002;8.390;2022-11-12T08:20:20;7.13;;;6.43;;
1879;SDS011;49285;49.002;8.390;2022-11-12T08:22:46;9.40;;;7.10;;
1879;SDS011;49285;49.002;8.390;2022-11-12T08:25:12;8.50;;;6.67;;
1879;SDS011;49285;49.002;8.390;2022-11-12T08:27:38;7.13;;;6.43;;
1879;SDS011;49285;49.002;8.390;2022-11-12T08:30:04;8.70;;;7.00;;
1879;SDS011;49285;49.002;8.390;2022-11-12T08:32:31;6.77;;;6.07;;
1879;SDS011;49285;49.002;8.390;2022-11-12T08:34:56;8.03;;;7.20;;
1879;SDS011;49285;49.002;8.390;2022-11-12T08:37:22;7.67;;;6.73;;
1879;SDS011;49285;49.002;8.390;2022-11-12T08:39:47;8.50;;;7.27;;
1879;SDS011;49285;49.002;8.390;2022-11-12T08:42:13;7.27;;;6.53;;
1879;SDS011;49285;49.002;8.390;2022-11-12T08:44:38;8.63;;;7.40;;
1879;SDS011;49285;49.002;8.390;2022-11-12T08:47:07;8.30;;;7.30;;
1879;SDS011;49285;49.002;8.390;2022-11-12T08:49:33;8.20;;;6.70;;
1879;SDS011;49285;49.002;8.390;2022-11-12T08:51:58;13.30;;;7.10;;
1879;SDS011;49285;49.002;8.390;2022-11-12T08:54:24;8.10;;;7.13;;
1879;SDS011;49285;49.002;8.390;2022-11-12T08:56:49;7.83;;;7.03;;
1879;SDS011;49285;49.002;8.390;2022-11-12T08:59:15;8.03;;;6.33;;
1879;SDS011;49285;49.002;8.390;2022-11-12T09:01:41;7.83;;;6.97;;
1879;SDS011;49285;49.002;8.390;2022-11-12T09:04:06;7.10;;;6.40;;
1879;SDS011;49285;49.002;8.390;2022-11-12T09:06:32;7.97;;;7.17;;
1879;SDS011;49285;49.002;8.390;2022-11-12T09:08:58;8.33;;;6.63;;
1879;SDS011;49285;49.002;8.390;2022-11-12T09:11:23;8.00;;;7.20;;
1879;SDS011;49285;49.002;8.390;2022-11-12T09:13:51;9.40;;;7.97;;
1879;SDS011;49285;49.002;8.390;2022-11-12T09:16:17;10.10;;;7.23;;
1879;SDS011;49285;49.002;8.390;2022-11-12T09:18:42;10.63;;;8.07;;
1879;SDS011;49285;49.002;8.390;2022-11-12T09:21:11;8.67;;;7.43;;
1879;SDS011;49285;49.002;8.390;2022-11-12T09:23:37;7.93;;;7.07;;
1879;SDS011;49285;49.002;8.390;2022-11-12T09:26:03;8.40;;;7.07;;
1879;SDS011;49285;49.002;8.390;2022-11-12T09:28:30;10.23;;;7.77;;
1879;SDS011;49285;49.002;8.390;2022-11-12T09:30:56;12.47;;;8.63;;
1879;SDS011;49285;49.002;8.390;2022-11-12T09:33:26;12.50;;;7.83;;
1879;SDS011;49285;49.002;8.390;2022-11-12T09:35:54;8.30;;;7.30;;
1879;SDS011;49285;49.002;8.390;2022-11-12T09:38:21;10.90;;;7.87;;
1879;SDS011;49285;49.002;8.390;2022-11-12T09:48:50;9.83;;;8.20;;
1879;SDS011;49285;49.002;8.390;2022-11-12T09:56:37;10.97;;;8.20;;
1879;SDS011;49285;49.002;8.390;2022-11-12T09:59:07;8.57;;;7.70;;
1879;SDS011;49285;49.002;8.390;2022-11-12T10:04:08;9.50;;;8.30;;
1879;SDS011;49285;49.002;8.390;2022-11-12T10:07:02;8.63;;;7.40;;
1879;SDS011;49285;49.002;8.390;2022-11-12T10:09:48;10.63;;;8.37;;
1879;SDS011;49285;49.002;8.390;2022-11-12T10:22:06;18.40;;;14.00;;
1879;SDS011;49285;49.002;8.390;2022-11-12T10:24:10;20.30;;;14.20;;
1879;SDS011;49285;49.002;8.390;2022-11-12T10:26:36;22.40;;;15.17;;
1879;SDS011;49285;49.002;8.390;2022-11-12T10:31:34;16.13;;;13.40;;
1879;SDS011;49285;49.002;8.390;2022-11-12T10:36:38;19.50;;;14.77;;
1879;SDS011;49285;49.002;8.390;2022-11-12T10:39:06;20.20;;;15.20;;
1879;SDS011;49285;49.002;8.390;2022-11-12T10:41:32;20.50;;;16.27;;
1879;SDS011;49285;49.002;8.390;2022-11-12T10:43:59;19.60;;;16.23;;
1879;SDS011;49285;49.002;8.390;2022-11-12T10:46:27;18.70;;;16.60;;
1879;SDS011;49285;49.002;8.390;2022-11-12T10:48:56;22.20;;;16.63;;
1879;SDS011;49285;49.002;8.390;2022-11-12T10:51:33;22.47;;;16.30;;
1879;SDS011;49285;49.002;8.390;2022-11-12T10:56:50;20.97;;;16.57;;
1879;SDS011;49285;49.002;8.390;2022-11-12T10:59:17;23.17;;;17.57;;
1879;SDS011;49285;49.002;8.390;2022-11-12T11:01:55;22.20;;;17.17;;
1879;SDS011;49285;49.002;8.390;2022-11-12T11:04:34;20.63;;;16.90;;
1879;SDS011;49285;49.002;8.390;2022-11-12T11:07:03;22.57;;;17.43;;
1879;SDS011;49285;49.002;8.390;2022-11-12T11:09:31;23.70;;;17.60;;
1879;SDS011;49285;49.002;8.390;2022-11-12T11:11:57;20.70;;;16.73;;
1879;SDS011;49285;49.002;8.390;2022-11-12T11:14:25;21.07;;;17.63;;
1879;SDS011;49285;49.002;8.390;2022-11-12T11:16:52;22.00;;;16.17;;
1879;SDS011;49285;49.002;8.390;2022-11-12T11:19:26;21.47;;;16.13;;
1879;SDS011;49285;49.002;8.390;2022-11-12T11:22:03;24.27;;;18.90;;
1879;SDS011;49285;49.002;8.390;2022-11-12T11:24:57;22.47;;;18.27;;
1879;SDS011;49285;49.002;8.390;2022-11-12T11:30:13;22.60;;;18.60;;
1879;SDS011;49285;49.002;8.390;2022-11-12T11:35:44;25.13;;;19.47;;
1879;SDS011;49285;49.002;8.390;2022-11-12T11:46:48;25.67;;;19.53;;
1879;SDS011;49285;49.002;8.390;2022-11-12T11:49:50;25.07;;;17.97;;
1879;SDS011;49285;49.002;8.390;2022-11-12T11:55:12;25.27;;;20.60;;
1879;SDS011;49285;49.002;8.390;2022-11-12T12:00:29;24.80;;;19.17;;
1879;SDS011;49285;49.002;8.390;2022-11-12T12:06:24;25.90;;;18.83;;
1879;SDS011;49285;49.002;8.390;2022-11-12T12:08:50;26.10;;;20.97;;
1879;SDS011;49285;49.002;8.390;2022-11-12T12:11:48;45.97;;;28.97;;
1879;SDS011;49285;49.002;8.390;2022-11-12T12:20:13;25.17;;;16.30;;
1879;SDS011;49285;49.002;8.390;2022-11-12T12:22:52;24.67;;;18.27;;
1879;SDS011;49285;49.002;8.390;2022-11-12T12:25:27;17.53;;;13.70;;
1879;SDS011;49285;49.002;8.390;2022-11-12T12:27:58;16.47;;;13.03;;
1879;SDS011;49285;49.002;8.390;2022-11-12T12:30:28;14.70;;;11.70;;
1879;SDS011;49285;49.002;8.390;2022-11-12T12:32:59;15.07;;;12.33;;
1879;SDS011;49285;49.002;8.390;2022-11-12T12:35:50;15.27;;;13.53;;
1879;SDS011;49285;49.002;8.390;2022-11-12T12:41:14;15.77;;;13.90;;
1879;SDS011;49285;49.002;8.390;2022-11-12T12:46:30;16.87;;;12.87;;
1879;SDS011;49285;49.002;8.390;2022-11-12T12:49:01;16.90;;;13.37;;
1879;SDS011;49285;49.002;8.390;2022-11-12T12:51:29;17.47;;;13.37;;
1879;SDS011;49285;49.002;8.390;2022-11-12T12:53:59;17.17;;;12.57;;
1879;SDS011;49285;49.002;8.390;2022-11-12T12:58:56;14.23;;;12.10;;
1879;SDS011;49285;49.002;8.390;2022-11-12T13:01:28;13.10;;;11.80;;
1879;SDS011;49285;49.002;8.390;2022-11-12T13:04:03;12.40;;;10.47;;
1879;SDS011;49285;49.002;8.390;2022-11-12T13:19:45;16.17;;;12.73;;
1879;SDS011;49285;49.002;8.390;2022-11-12T13:37:46;14.20;;;12.70;;
1879;SDS011;49285;49.002;8.390;2022-11-12T13:41:05;21.33;;;13.87;;
1879;SDS011;49285;49.002;8.390;2022-11-12T13:43:12;17.10;;;13.80;;
1879;SDS011;49285;49.002;8.390;2022-11-12T13:48:22;18.60;;;15.60;;
1879;SDS011;49285;49.002;8.390;2022-11-12T13:51:23;19.03;;;14.87;;
1879;SDS011;49285;49.002;8.390;2022-11-12T13:54:30;17.10;;;14.30;;
1879;SDS011;49285;49.002;8.390;2022-11-12T13:59:48;17.70;;;15.30;;
1879;SDS011;49285;49.002;8.390;2022-11-12T14:02:31;14.93;;;13.17;;
1879;SDS011;49285;49.002;8.390;2022-11-12T14:04:57;15.10;;;13.50;;
1879;SDS011;49285;49.002;8.390;2022-11-12T14:07:35;14.20;;;12.60;;
1879;SDS011;49285;49.002;8.390;2022-11-12T14:15:53;22.47;;;14.73;;
1879;SDS011;49285;49.002;8.390;2022-11-12T14:21:14;20.30;;;16.33;;
1879;SDS011;49285;49.002;8.390;2022-11-12T14:23:45;18.73;;;15.33;;
1879;SDS011;49285;49.002;8.390;2022-11-12T14:26:13;14.43;;;12.70;;
1879;SDS011;49285;49.002;8.390;2022-11-12T14:29:04;15.67;;;14.07;;
1879;SDS011;49285;49.002;8.390;2022-11-12T14:31:30;15.00;;;13.40;;
1879;SDS011;49285;49.002;8.390;2022-11-12T14:33:56;19.33;;;17.27;;
1879;SDS011;49285;49.002;8.390;2022-11-12T14:36:21;16.23;;;14.50;;
1879;SDS011;49285;49.002;8.390;2022-11-12T14:38:52;16.93;;;14.57;;
1879;SDS011;49285;49.002;8.390;2022-11-12T14:41:23;20.93;;;18.73;;
1879;SDS011;49285;49.002;8.390;2022-11-12T14:44:00;16.53;;;14.47;;
1879;SDS011;49285;49.002;8.390;2022-11-12T14:48:55;17.03;;;13.87;;
1879;SDS011;49285;49.002;8.390;2022-11-12T14:51:26;17.50;;;14.80;;
1879;SDS011;49285;49.002;8.390;2022-11-12T14:53:56;17.00;;;13.50;;
1879;SDS011;49285;49.002;8.390;2022-11-12T14:56:30;16.47;;;14.77;;
1879;SDS011;49285;49.002;8.390;2022-11-12T14:59:04;15.90;;;14.20;;
1879;SDS011;49285;49.002;8.390;2022-11-12T15:01:33;15.10;;;13.53;;
1879;SDS011;49285;49.002;8.390;2022-11-12T15:04:14;18.47;;;15.00;;
1879;SDS011;49285;49.002;8.390;2022-11-12T15:06:49;18.20;;;15.90;;
1879;SDS011;49285;49.002;8.390;2022-11-12T15:09:17;16.87;;;14.73;;
1879;SDS011;49285;49.002;8.390;2022-11-12T15:11:45;16.20;;;14.40;;
1879;SDS011;49285;49.002;8.390;2022-11-12T15:14:18;17.80;;;14.20;;
1879;SDS011;49285;49.002;8.390;2022-11-12T15:16:48;19.20;;;15.60;;
1879;SDS011;49285;49.002;8.390;2022-11-12T15:21:46;17.57;;;15.23;;
1879;SDS011;49285;49.002;8.390;2022-11-12T15:24:24;16.20;;;14.53;;
1879;SDS011;49285;49.002;8.390;2022-11-12T15:26:55;16.67;;;15.03;;
1879;SDS011;49285;49.002;8.390;2022-11-12T15:36:52;16.07;;;13.53;;
1879;SDS011;49285;49.002;8.390;2022-11-12T15:39:23;16.63;;;14.20;;
1879;SDS011;49285;49.002;8.390;2022-11-12T15:44:41;18.80;;;15.33;;
1879;SDS011;49285;49.002;8.390;2022-11-12T15:47:08;20.30;;;14.83;;
1879;SDS011;49285;49.002;8.390;2022-11-12T15:49:47;16.80;;;14.60;;
1879;SDS011;49285;49.002;8.390;2022-11-12T15:52:13;17.20;;;14.30;;
1879;SDS011;49285;49.002;8.390;2022-11-12T15:54:39;18.37;;;15.97;;
1879;SDS011;49285;49.002;8.390;2022-11-12T15:57:06;21.03;;;15.10;;
1879;SDS011;49285;49.002;8.390;2022-11-12T15:59:35;18.63;;;15.50;;
1879;SDS011;49285;49.002;8.390;2022-11-12T16:02:01;17.30;;;15.07;;
1879;SDS011;49285;49.002;8.390;2022-11-12T16:04:27;19.70;;;15.90;;
1879;SDS011;49285;49.002;8.390;2022-11-12T16:06:52;24.70;;;16.30;;
1879;SDS011;49285;49.002;8.390;2022-11-12T16:09:18;18.20;;;16.13;;
1879;SDS011;49285;49.002;8.390;2022-11-12T16:11:43;17.83;;;15.37;;
1879;SDS011;49285;49.002;8.390;2022-11-12T16:14:09;20.70;;;16.80;;
1879;SDS011;49285;49.002;8.390;2022-11-12T16:16:37;21.80;;;18.00;;
1879;SDS011;49285;49.002;8.390;2022-11-12T16:19:08;23.57;;;17.37;;
1879;SDS011;49285;49.002;8.390;2022-11-12T16:21:37;22.47;;;17.87;;
1879;SDS011;49285;49.002;8.390;2022-11-12T16:24:03;25.30;;;18.93;;
1879;SDS011;49285;49.002;8.390;2022-11-12T16:26:29;21.67;;;17.10;;
1879;SDS011;49285;49.002;8.390;2022-11-12T16:28:56;26.30;;;19.40;;
1879;SDS011;49285;49.002;8.390;2022-11-12T16:31:22;25.73;;;19.00;;
1879;SDS011;49285;49.002;8.390;2022-11-12T16:33:48;29.93;;;21.53;;
1879;SDS011;49285;49.002;8.390;2022-11-12T16:36:14;32.30;;;21.90;;
1879;SDS011;49285;49.002;8.390;2022-11-12T16:38:40;27.97;;;20.30;;
1879;SDS011;49285;49.002;8.390;2022-11-12T16:41:10;37.43;;;24.03;;
1879;SDS011;49285;49.002;8.390;2022-11-12T16:43:36;36.20;;;24.77;;
1879;SDS011;49285;49.002;8.390;2022-11-12T16:46:05;35.30;;;24.13;;
1879;SDS011;49285;49.002;8.390;2022-11-12T16:48:51;32.10;;;22.83;;
1879;SDS011;49285;49.002;8.390;2022-11-12T16:51:18;28.97;;;20.93;;
1879;SDS011;49285;49.002;8.390;2022-11-12T16:53:44;31.87;;;22.37;;
1879;SDS011;49285;49.002;8.390;2022-11-12T16:56:11;27.70;;;20.90;;
1879;SDS011;49285;49.002;8.390;2022-11-12T16:58:41;27.50;;;21.63;;
1879;SDS011;49285;49.002;8.390;2022-11-12T17:01:09;27.57;;;20.70;;
1879;SDS011;49285;49.002;8.390;2022-11-12T17:03:47;26.30;;;20.27;;
1879;SDS011;49285;49.002;8.390;2022-11-12T17:06:14;32.80;;;21.30;;
1879;SDS011;49285;49.002;8.390;2022-11-12T17:08:39;29.17;;;20.90;;
1879;SDS011;49285;49.002;8.390;2022-11-12T17:11:06;29.33;;;19.57;;
1879;SDS011;49285;49.002;8.390;2022-11-12T17:13:33;27.33;;;20.63;;
1879;SDS011;49285;49.002;8.390;2022-11-12T17:16:00;28.23;;;19.17;;